Airfield :
LOGIN :

Register | Disclaimer

   EN    FR    IT 

 










Legend :    VFR   Marginal VFR   IFR   Intensive IFR   Very Intensive IFR
Visi :
Ceiling :
>= 8 km
>= 3000ft
5 to 8 km
1000 to 3000 ft
1500m to 5 km
500 to 1000 ft
800 to 1500m
200 to 500 ft
< 800m
< 200 ft
Symbols :   Thunderstorms  Fog  Heavy snow  Heavy precipitations  Wind > 20 kt
SIGMETs :     Misc.  Thunderstorms  Icing  Turbulence  Mountain Waves  Volcanic Ashes






- Airport Elevation : 2265 ft
- IATA code : CZL


DABC - Mohamed Boudiaf Int. Constantine

CURRENT METAR :
  • 080830Z VRB02KT CAVOK 09/07 Q1014

EXPIRED METARs :
  • 080800Z VRB02KT CAVOK 08/06 Q1014
  • 080730Z 13004KT CAVOK 06/05 Q1014
  • 080700Z 00000KT 9999 FEW033 05/04 Q1014
  • 080630Z VRB02KT 9999 FEW033 SCT200 05/04 Q1014
  • 080600Z VRB02KT 8000 FEW033 05/05 Q1014

TAF TAF DABC
Valid from the 08 at 06:00 until the 09 at 06:00 UTC


080500Z 0806/0906 34008KT 8000 FEW033
PROB40
TEMPO 0806/0808 2000 BR BKN010
PROB30
TEMPO 0814/0824 27012KT FEW026TCU



MET'MAP, your aeronautical weather chart ! - Copyright ORBIFLY December 2007 - Disclaimer

ORBIFLY MET'MAP TEAM :

Programming & Development : Alexandra Zaïnal
Original concept : Baudouin d'Aumeries
Technical & hardware support : Manuel Goepfert
Assistance : Marc-Olivier Méhu




SOURCES & CREDITS :

   NOAA